createdAt,value
2018-05-10T00:01:45.864Z,11.97
2018-05-10T00:03:50.169Z,11.97
2018-05-10T00:05:53.683Z,13.87
2018-05-10T00:07:57.394Z,10.57
2018-05-10T00:10:00.806Z,15.20
2018-05-10T00:12:04.387Z,12.47
2018-05-10T00:14:07.941Z,9.77
2018-05-10T00:16:11.662Z,9.67
2018-05-10T00:18:15.274Z,10.43
2018-05-10T00:20:18.807Z,14.63
2018-05-10T00:22:22.302Z,17.30
2018-05-10T00:24:25.906Z,18.60
2018-05-10T00:26:29.591Z,12.23
2018-05-10T00:28:33.162Z,15.30
2018-05-10T00:30:36.715Z,11.90
2018-05-10T00:32:41.055Z,15.73
2018-05-10T00:34:44.587Z,14.10
2018-05-10T00:36:48.085Z,11.17
2018-05-10T00:38:51.634Z,14.80
2018-05-10T00:40:55.930Z,14.07
2018-05-10T00:42:59.525Z,14.97
2018-05-10T00:45:03.006Z,12.67
2018-05-10T00:47:06.540Z,18.33
2018-05-10T00:49:10.908Z,14.50
2018-05-10T00:51:14.439Z,14.20
2018-05-10T00:53:18.803Z,13.10
2018-05-10T00:55:22.302Z,15.53
2018-05-10T00:57:25.843Z,13.73
2018-05-10T00:59:29.424Z,13.70
2018-05-10T01:01:33.718Z,11.47
2018-05-10T01:03:37.240Z,13.47
2018-05-10T01:05:40.781Z,11.23
2018-05-10T01:07:44.326Z,11.33
2018-05-10T01:09:47.823Z,11.83
2018-05-10T01:11:51.498Z,10.10
2018-05-10T01:13:55.004Z,16.50
2018-05-10T01:15:58.553Z,11.87
2018-05-10T01:18:02.160Z,13.90
2018-05-10T01:20:05.727Z,14.10
2018-05-10T01:22:09.329Z,16.70
2018-05-10T01:24:12.898Z,13.10
2018-05-10T01:26:16.445Z,17.47
2018-05-10T01:28:20.509Z,15.20
2018-05-10T01:30:24.872Z,13.80
2018-05-10T01:32:28.414Z,13.67
2018-05-10T01:34:31.951Z,13.60
2018-05-10T01:36:35.532Z,15.63
2018-05-10T01:38:39.102Z,14.40
2018-05-10T01:40:42.680Z,12.63
2018-05-10T01:42:46.259Z,13.67
2018-05-10T01:44:49.771Z,17.70
2018-05-10T01:46:55.708Z,11.67
2018-05-10T01:48:59.216Z,13.17
2018-05-10T01:51:02.730Z,11.87
2018-05-10T01:53:07.092Z,12.93
2018-05-10T01:55:11.045Z,13.97
2018-05-10T01:57:14.527Z,12.10
2018-05-10T01:59:18.053Z,14.60
2018-05-10T02:01:21.983Z,13.00
2018-05-10T02:03:25.495Z,13.07
2018-05-10T02:05:29.079Z,10.20
2018-05-10T02:07:32.655Z,19.47
2018-05-10T02:09:36.221Z,16.13
2018-05-10T02:11:39.723Z,14.83
2018-05-10T02:13:44.073Z,15.90
2018-05-10T02:15:47.644Z,11.93
2018-05-10T02:17:51.950Z,13.17
2018-05-10T02:19:55.442Z,13.43
2018-05-10T02:21:59.761Z,16.03
2018-05-10T02:24:04.082Z,23.37
2018-05-10T02:26:08.358Z,23.73
2018-05-10T02:28:11.931Z,33.37
2018-05-10T02:30:15.490Z,28.53
2018-05-10T02:32:19.802Z,31.97
2018-05-10T02:34:23.425Z,37.87
2018-05-10T02:36:26.968Z,29.43
2018-05-10T02:38:31.300Z,42.47
2018-05-10T02:40:35.602Z,49.80
2018-05-10T02:42:39.923Z,47.40
2018-05-10T02:44:44.259Z,55.63
2018-05-10T02:46:47.807Z,50.83
2018-05-10T02:48:51.403Z,54.27
2018-05-10T02:50:54.958Z,60.40
2018-05-10T02:52:58.515Z,51.53
2018-05-10T02:55:02.065Z,52.83
2018-05-10T02:57:05.597Z,55.40
2018-05-10T02:59:09.095Z,57.47
2018-05-10T03:01:12.685Z,51.03
2018-05-10T03:03:16.256Z,61.10
2018-05-10T03:05:19.824Z,60.90
2018-05-10T03:07:24.113Z,56.27
2018-05-10T03:09:27.621Z,60.10
2018-05-10T03:11:31.948Z,62.90
2018-05-10T03:13:35.556Z,59.57
2018-05-10T03:15:39.119Z,61.60
2018-05-10T03:17:43.423Z,61.80
2018-05-10T03:19:46.976Z,58.20
2018-05-10T03:21:50.586Z,41.27
2018-05-10T03:23:54.236Z,58.10
2018-05-10T03:25:58.568Z,57.97
2018-05-10T03:28:02.160Z,52.27
2018-05-10T03:30:05.671Z,37.77
2018-05-10T03:32:09.170Z,50.97
2018-05-10T03:34:12.699Z,56.57
2018-05-10T03:36:16.236Z,55.77
2018-05-10T03:38:19.791Z,62.17
2018-05-10T03:40:23.509Z,60.33
2018-05-10T03:42:27.791Z,57.50
2018-05-10T03:44:31.370Z,51.70
2018-05-10T03:46:34.922Z,52.33
2018-05-10T03:48:39.249Z,51.17
2018-05-10T03:50:42.799Z,52.53
2018-05-10T03:52:46.340Z,52.53
2018-05-10T03:54:49.895Z,51.83
2018-05-10T03:56:53.463Z,53.13
2018-05-10T03:58:57.005Z,59.77
2018-05-10T04:01:01.287Z,63.93
2018-05-10T04:06:06.376Z,51.93
2018-05-10T04:08:21.572Z,55.37
2018-05-10T04:10:36.839Z,54.83
2018-05-10T04:12:40.287Z,58.80
2018-05-10T04:14:43.718Z,57.50
2018-05-10T04:16:47.963Z,58.33
2018-05-10T04:18:51.476Z,53.33
2018-05-10T04:20:55.084Z,45.57
2018-05-10T04:22:58.598Z,61.47
2018-05-10T04:25:02.896Z,63.03
2018-05-10T04:27:06.463Z,71.83
2018-05-10T04:29:09.990Z,82.57
2018-05-10T04:31:13.494Z,67.23
2018-05-10T04:33:18.202Z,78.83
2018-05-10T04:35:21.718Z,79.93
2018-05-10T04:37:26.004Z,76.17
2018-05-10T04:39:29.546Z,69.17
2018-05-10T04:41:33.136Z,78.17
2018-05-10T04:43:36.747Z,70.97
2018-05-10T04:45:40.307Z,77.87
2018-05-10T04:47:44.636Z,75.50
2018-05-10T04:49:48.187Z,80.00
2018-05-10T04:51:52.286Z,77.43
2018-05-10T04:53:56.044Z,79.30
2018-05-10T04:55:59.956Z,74.40
2018-05-10T04:58:03.972Z,77.57
2018-05-10T05:00:07.800Z,84.77
2018-05-10T05:02:11.407Z,86.10
2018-05-10T05:04:15.612Z,79.93
2018-05-10T05:06:19.125Z,88.33
2018-05-10T05:08:22.611Z,97.47
2018-05-10T05:10:26.164Z,96.83
2018-05-10T05:12:29.690Z,100.67
2018-05-10T05:14:33.219Z,89.87
2018-05-10T05:16:37.951Z,90.33
2018-05-10T05:18:41.540Z,80.77
2018-05-10T05:20:45.047Z,85.20
2018-05-10T05:22:49.366Z,90.30
2018-05-10T05:24:53.668Z,88.10
2018-05-10T05:26:58.074Z,88.50
2018-05-10T05:29:01.572Z,93.43
2018-05-10T05:31:05.885Z,85.20
2018-05-10T05:33:09.402Z,78.07
2018-05-10T05:35:13.712Z,81.70
2018-05-10T05:37:17.282Z,92.77
2018-05-10T05:39:21.600Z,93.10
2018-05-10T05:41:26.033Z,93.10
2018-05-10T05:43:30.372Z,81.73
2018-05-10T05:45:33.862Z,78.90
2018-05-10T05:47:38.867Z,87.90
2018-05-10T05:49:42.530Z,86.03
2018-05-10T05:51:46.311Z,90.47
2018-05-10T05:53:49.914Z,92.10
2018-05-10T05:55:53.418Z,86.63
2018-05-10T05:57:56.967Z,79.83
2018-05-10T06:00:01.290Z,84.50
2018-05-10T06:02:05.614Z,81.67
2018-05-10T06:04:09.182Z,90.73
2018-05-10T06:06:12.700Z,86.67
2018-05-10T06:08:16.279Z,83.97
2018-05-10T06:10:19.887Z,57.60
2018-05-10T06:12:23.384Z,76.23
2018-05-10T06:14:26.907Z,74.00
2018-05-10T06:16:30.460Z,81.70
2018-05-10T06:18:34.017Z,67.53
2018-05-10T06:20:37.522Z,78.20
2018-05-10T06:22:41.049Z,72.57
2018-05-10T06:24:45.390Z,75.07
2018-05-10T06:26:48.915Z,72.80
2018-05-10T06:28:52.553Z,68.27
2018-05-10T06:30:56.950Z,77.27
2018-05-10T06:33:01.241Z,55.57
2018-05-10T06:35:06.235Z,62.97
2018-05-10T06:37:09.790Z,71.77
2018-05-10T06:39:14.090Z,65.60
2018-05-10T06:41:17.956Z,62.93
2018-05-10T06:43:21.491Z,62.13
2018-05-10T06:45:25.815Z,75.17
2018-05-10T06:47:29.389Z,45.63
2018-05-10T06:49:32.918Z,50.57
2018-05-10T06:51:36.576Z,53.60
2018-05-10T06:53:41.303Z,69.50
2018-05-10T06:55:44.913Z,61.43
2018-05-10T06:57:48.429Z,67.53
2018-05-10T06:59:52.795Z,51.43
2018-05-10T07:01:56.364Z,59.20
2018-05-10T07:03:59.884Z,52.70
2018-05-10T07:06:03.397Z,52.17
2018-05-10T07:08:06.989Z,53.87
2018-05-10T07:10:10.579Z,55.13
2018-05-10T07:12:14.123Z,54.50
2018-05-10T07:14:17.672Z,57.37
2018-05-10T07:16:21.223Z,49.93
2018-05-10T07:18:24.763Z,49.37
2018-05-10T07:20:28.372Z,52.80
2018-05-10T07:22:31.853Z,49.40
2018-05-10T07:24:36.165Z,47.73
2018-05-10T07:26:39.733Z,52.73
2018-05-10T07:28:43.998Z,48.60
2018-05-10T07:30:48.397Z,53.93
2018-05-10T07:32:54.243Z,52.60
2018-05-10T07:34:58.310Z,51.53
2018-05-10T07:37:02.854Z,50.07
2018-05-10T07:39:07.266Z,41.90
2018-05-10T07:41:10.789Z,50.60
2018-05-10T07:43:14.436Z,46.10
2018-05-10T07:45:17.948Z,42.20
2018-05-10T07:47:21.501Z,44.97
2018-05-10T07:49:25.933Z,48.07
2018-05-10T07:51:29.511Z,44.07
2018-05-10T07:53:33.033Z,45.10
2018-05-10T07:55:37.345Z,46.67
2018-05-10T07:57:40.865Z,45.90
2018-05-10T07:59:44.376Z,45.53
2018-05-10T08:01:47.947Z,50.27
2018-05-10T08:03:51.535Z,45.00
2018-05-10T08:05:55.007Z,43.37
2018-05-10T08:07:59.305Z,45.17
2018-05-10T08:10:02.955Z,45.67
2018-05-10T08:12:07.323Z,43.17
2018-05-10T08:14:11.618Z,41.20
2018-05-10T08:16:15.187Z,40.07
2018-05-10T08:18:18.715Z,42.03
2018-05-10T08:20:22.292Z,39.83
2018-05-10T08:22:25.930Z,40.47
2018-05-10T08:24:29.496Z,38.00
2018-05-10T08:26:33.816Z,33.93
2018-05-10T08:28:37.342Z,32.90
2018-05-10T08:30:40.950Z,30.83
2018-05-10T08:32:44.475Z,37.23
2018-05-10T08:34:48.389Z,28.23
2018-05-10T08:36:52.025Z,23.90
2018-05-10T08:38:55.483Z,26.07
2018-05-10T08:40:59.061Z,21.70
2018-05-10T08:43:02.625Z,23.60
2018-05-10T08:45:06.701Z,19.60
2018-05-10T08:47:10.194Z,19.77
2018-05-10T08:49:13.695Z,17.10
2018-05-10T08:51:17.227Z,16.77
2018-05-10T08:53:20.787Z,16.07
2018-05-10T08:55:24.300Z,16.13
2018-05-10T08:57:28.621Z,15.63
2018-05-10T08:59:32.883Z,14.90
2018-05-10T09:01:36.461Z,13.10
2018-05-10T09:03:40.044Z,13.20
2018-05-10T09:05:43.591Z,14.23
2018-05-10T09:07:47.153Z,15.10
2018-05-10T09:09:50.692Z,16.17
2018-05-10T09:11:54.555Z,11.60
2018-05-10T09:13:58.047Z,12.93
2018-05-10T09:16:01.588Z,14.53
2018-05-10T09:18:06.019Z,11.77
2018-05-10T09:20:09.655Z,11.53
2018-05-10T09:22:13.892Z,16.57
2018-05-10T09:24:18.292Z,10.93
2018-05-10T09:26:21.805Z,11.53
2018-05-10T09:28:25.359Z,10.50
2018-05-10T09:30:28.922Z,10.20
2018-05-10T09:32:33.213Z,10.27
2018-05-10T09:34:37.035Z,9.33
2018-05-10T09:36:41.313Z,11.07
2018-05-10T09:38:44.852Z,9.40
2018-05-10T09:40:49.172Z,9.13
2018-05-10T09:42:53.468Z,9.87
2018-05-10T09:44:57.842Z,8.73
2018-05-10T09:47:01.335Z,10.63
2018-05-10T09:49:04.863Z,8.70
2018-05-10T09:51:08.829Z,8.00
2018-05-10T09:53:12.459Z,8.83
2018-05-10T09:55:15.931Z,8.40
2018-05-10T09:57:19.485Z,8.83
2018-05-10T09:59:23.114Z,8.00
2018-05-10T10:01:28.292Z,8.87
2018-05-10T10:03:33.159Z,6.90
2018-05-10T10:05:36.681Z,6.50
2018-05-10T10:07:40.210Z,8.30
2018-05-10T10:09:45.581Z,7.00
2018-05-10T10:11:51.106Z,9.23
2018-05-10T10:13:54.598Z,8.57
2018-05-10T10:15:58.874Z,6.87
2018-05-10T10:18:02.404Z,6.80
2018-05-10T10:20:06.894Z,7.30
2018-05-10T10:22:10.374Z,7.03
2018-05-10T10:24:14.852Z,6.67
2018-05-10T10:26:19.446Z,7.17
2018-05-10T10:28:23.026Z,7.30
2018-05-10T10:30:27.359Z,6.50
2018-05-10T10:32:31.654Z,6.97
2018-05-10T10:34:35.194Z,7.27
2018-05-10T10:36:38.706Z,6.77
2018-05-10T10:38:42.246Z,6.40
2018-05-10T10:40:45.809Z,7.10
2018-05-10T10:42:51.098Z,6.80
2018-05-10T10:44:55.335Z,5.57
2018-05-10T10:46:58.859Z,5.10
2018-05-10T10:49:02.573Z,7.33
2018-05-10T10:51:08.857Z,5.30
2018-05-10T10:53:14.015Z,6.33
2018-05-10T10:55:19.088Z,5.57
2018-05-10T10:57:22.577Z,3.67
2018-05-10T10:59:28.373Z,4.60
2018-05-10T11:01:34.339Z,3.80
2018-05-10T11:03:38.651Z,3.53
2018-05-10T11:05:43.046Z,4.83
2018-05-10T11:07:47.343Z,3.83
2018-05-10T11:09:50.843Z,3.20
2018-05-10T11:11:54.392Z,3.67
2018-05-10T11:13:57.926Z,4.27
2018-05-10T11:16:02.357Z,5.80
2018-05-10T11:18:06.642Z,4.30
2018-05-10T11:20:10.110Z,5.37
2018-05-10T11:22:13.639Z,4.30
2018-05-10T11:24:17.127Z,5.80
2018-05-10T11:26:20.712Z,5.57
2018-05-10T11:28:27.322Z,8.67
2018-05-10T11:30:31.422Z,5.87
2018-05-10T11:32:35.772Z,5.53
2018-05-10T11:34:39.287Z,5.70
2018-05-10T11:36:42.815Z,5.53
2018-05-10T11:38:46.339Z,5.27
2018-05-10T11:40:49.840Z,4.60
2018-05-10T11:42:53.479Z,3.73
2018-05-10T11:44:56.995Z,4.70
2018-05-10T11:47:00.502Z,5.33
2018-05-10T11:49:04.884Z,6.30
2018-05-10T11:51:08.403Z,4.47
2018-05-10T11:53:11.932Z,4.07
2018-05-10T11:55:15.821Z,4.70
2018-05-10T11:57:19.617Z,4.30
2018-05-10T11:59:23.090Z,4.80
2018-05-10T12:01:28.826Z,3.83
2018-05-10T12:03:38.167Z,4.53
2018-05-10T12:05:44.005Z,5.20
2018-05-10T12:07:47.547Z,4.80
2018-05-10T12:09:51.944Z,4.93
2018-05-10T12:11:55.530Z,6.70
2018-05-10T12:13:59.021Z,4.87
2018-05-10T12:16:02.578Z,4.07
2018-05-10T12:18:06.116Z,4.50
2018-05-10T12:20:09.612Z,3.43
2018-05-10T12:22:13.174Z,4.03
2018-05-10T12:24:16.728Z,3.00
2018-05-10T12:26:21.042Z,3.97
2018-05-10T12:28:24.611Z,3.47
2018-05-10T12:30:28.140Z,5.13
2018-05-10T12:32:31.679Z,9.63
2018-05-10T12:34:35.222Z,5.80
2018-05-10T12:36:39.554Z,9.07
2018-05-10T12:38:43.047Z,4.53
2018-05-10T12:40:46.577Z,2.70
2018-05-10T12:42:50.096Z,3.73
2018-05-10T12:44:53.671Z,4.13
2018-05-10T12:46:57.201Z,6.53
2018-05-10T12:49:00.856Z,4.93
2018-05-10T12:51:04.381Z,4.67
2018-05-10T12:53:07.900Z,5.30
2018-05-10T12:55:12.289Z,5.20
2018-05-10T12:57:15.792Z,3.83
2018-05-10T12:59:19.284Z,3.97
2018-05-10T13:01:22.859Z,3.87
2018-05-10T13:03:26.357Z,3.13
2018-05-10T13:05:29.979Z,3.77
2018-05-10T13:07:33.447Z,5.63
2018-05-10T13:09:36.992Z,4.83
2018-05-10T13:11:40.551Z,4.30
2018-05-10T13:13:44.046Z,5.60
2018-05-10T13:15:47.552Z,2.63
2018-05-10T13:17:51.079Z,5.30
2018-05-10T13:19:54.596Z,6.40
2018-05-10T13:21:58.137Z,7.47
2018-05-10T13:24:02.447Z,5.63
2018-05-10T13:26:05.930Z,5.47
2018-05-10T13:28:09.448Z,3.70
2018-05-10T13:30:12.998Z,3.57
2018-05-10T13:32:16.498Z,7.97
2018-05-10T13:34:19.975Z,5.33
2018-05-10T13:36:23.517Z,3.97
2018-05-10T13:38:27.183Z,3.97
2018-05-10T13:40:30.619Z,3.90
2018-05-10T13:42:34.878Z,3.77
2018-05-10T13:44:38.416Z,4.97
2018-05-10T13:46:41.919Z,5.53
2018-05-10T13:48:46.211Z,4.13
2018-05-10T13:50:49.757Z,3.50
2018-05-10T13:52:53.355Z,4.30
2018-05-10T13:54:56.805Z,4.63
2018-05-10T13:57:00.368Z,4.57
2018-05-10T13:59:03.856Z,4.57
2018-05-10T14:01:07.382Z,6.33
2018-05-10T14:03:10.945Z,4.27
2018-05-10T14:05:14.478Z,6.40
2018-05-10T14:07:18.006Z,3.40
2018-05-10T14:09:21.578Z,6.83
2018-05-10T14:11:25.282Z,5.33
2018-05-10T14:13:28.903Z,2.73
2018-05-10T14:15:33.210Z,4.50
2018-05-10T14:17:37.523Z,7.47
2018-05-10T14:19:41.950Z,3.50
2018-05-10T14:21:45.456Z,5.37
2018-05-10T14:23:48.971Z,4.10
2018-05-10T14:25:53.100Z,3.83
2018-05-10T14:27:56.616Z,7.90
2018-05-10T14:30:00.903Z,7.03
2018-05-10T14:32:04.476Z,7.47
2018-05-10T14:34:08.016Z,5.83
2018-05-10T14:36:11.684Z,7.20
2018-05-10T14:38:15.236Z,6.83
2018-05-10T14:40:18.775Z,4.53
2018-05-10T14:42:23.415Z,6.53
2018-05-10T14:44:27.692Z,5.50
2018-05-10T14:46:31.232Z,5.40
2018-05-10T14:48:34.804Z,3.70
2018-05-10T14:50:38.335Z,4.10
2018-05-10T14:52:42.622Z,5.70
2018-05-10T14:54:46.160Z,5.90
2018-05-10T14:56:49.672Z,4.70
2018-05-10T14:58:53.145Z,5.43
2018-05-10T15:00:57.471Z,2.73
2018-05-10T15:03:01.165Z,5.33
2018-05-10T15:05:05.648Z,4.72
2018-05-10T15:07:09.158Z,5.93
2018-05-10T15:09:13.018Z,4.30
2018-05-10T15:11:17.369Z,4.17
2018-05-10T15:13:21.669Z,7.60
2018-05-10T15:15:25.313Z,3.63
2018-05-10T15:17:28.823Z,4.13
2018-05-10T15:19:32.306Z,6.30
2018-05-10T15:21:35.862Z,6.10
2018-05-10T15:23:39.926Z,6.20
2018-05-10T15:25:44.216Z,7.80
2018-05-10T15:27:47.761Z,7.27
2018-05-10T15:29:51.274Z,10.30
2018-05-10T15:31:54.819Z,6.67
2018-05-10T15:33:58.312Z,6.43
2018-05-10T15:36:01.870Z,3.70
2018-05-10T15:38:06.175Z,4.30
2018-05-10T15:40:09.696Z,7.23
2018-05-10T15:42:13.231Z,5.07
2018-05-10T15:44:16.740Z,8.50
2018-05-10T15:46:20.358Z,7.30
2018-05-10T15:48:24.671Z,7.70
2018-05-10T15:50:28.962Z,5.53
2018-05-10T15:52:32.502Z,5.30
2018-05-10T15:54:36.005Z,8.50
2018-05-10T15:56:39.555Z,6.20
2018-05-10T15:58:43.138Z,5.33
2018-05-10T16:00:46.677Z,6.53
2018-05-10T16:02:51.011Z,5.30
2018-05-10T16:04:54.503Z,4.93
2018-05-10T16:06:57.999Z,8.40
2018-05-10T16:09:01.561Z,5.67
2018-05-10T16:11:05.832Z,6.33
2018-05-10T16:13:09.337Z,5.07
2018-05-10T16:15:13.456Z,5.70
2018-05-10T16:17:16.979Z,4.47
2018-05-10T16:19:21.275Z,7.77
2018-05-10T16:21:25.625Z,4.03
2018-05-10T16:23:29.142Z,5.10
2018-05-10T16:25:32.680Z,4.23
2018-05-10T16:27:36.177Z,7.80
2018-05-10T16:29:39.677Z,6.80
2018-05-10T16:31:44.043Z,4.83
2018-05-10T16:33:47.542Z,3.43
2018-05-10T16:35:51.068Z,4.67
2018-05-10T16:37:54.596Z,4.40
2018-05-10T16:39:58.858Z,3.30
2018-05-10T16:42:02.415Z,5.20
2018-05-10T16:44:06.758Z,4.17
2018-05-10T16:46:10.336Z,4.67
2018-05-10T16:48:13.879Z,6.93
2018-05-10T16:50:17.363Z,4.63
2018-05-10T16:52:20.913Z,4.67
2018-05-10T16:54:24.463Z,7.33
2018-05-10T16:56:28.007Z,7.77
2018-05-10T16:58:31.515Z,4.03
2018-05-10T17:00:35.016Z,4.27
2018-05-10T17:02:38.730Z,4.77
2018-05-10T17:04:42.994Z,5.90
2018-05-10T17:06:47.284Z,4.83
2018-05-10T17:08:50.860Z,2.93
2018-05-10T17:10:54.352Z,5.90
2018-05-10T17:12:58.263Z,4.70
2018-05-10T17:15:01.792Z,4.33
2018-05-10T17:17:06.108Z,6.40
2018-05-10T17:19:10.417Z,4.33
2018-05-10T17:21:14.699Z,3.50
2018-05-10T17:23:19.052Z,5.17
2018-05-10T17:25:22.602Z,2.17
2018-05-10T17:27:26.150Z,3.50
2018-05-10T17:29:29.810Z,3.77
2018-05-10T17:31:33.311Z,4.87
2018-05-10T17:33:36.806Z,5.10
2018-05-10T17:35:41.117Z,8.10
2018-05-10T17:37:45.405Z,7.70
2018-05-10T17:39:48.954Z,17.73
2018-05-10T17:41:52.541Z,15.13
2018-05-10T17:43:56.824Z,5.13
2018-05-10T17:46:00.330Z,5.50
2018-05-10T17:48:03.912Z,4.43
2018-05-10T17:50:07.411Z,5.57
2018-05-10T17:52:10.899Z,9.93
2018-05-10T17:54:14.491Z,17.87
2018-05-10T17:56:18.003Z,6.40
2018-05-10T17:58:22.319Z,8.60
2018-05-10T18:00:25.824Z,6.07
2018-05-10T18:02:30.144Z,9.53
2018-05-10T18:04:34.457Z,7.73
2018-05-10T18:06:38.762Z,5.40
2018-05-10T18:08:42.366Z,8.23
2018-05-10T18:10:45.937Z,10.17
2018-05-10T18:12:49.531Z,8.73
2018-05-10T18:14:53.147Z,7.63
2018-05-10T18:16:57.470Z,6.93
2018-05-10T18:19:01.751Z,7.43
2018-05-10T18:21:05.292Z,6.70
2018-05-10T18:23:09.670Z,4.93
2018-05-10T18:25:13.891Z,10.20
2018-05-10T18:27:17.423Z,3.30
2018-05-10T18:29:20.927Z,7.00
2018-05-10T18:31:24.490Z,4.67
2018-05-10T18:33:28.135Z,6.17
2018-05-10T18:35:32.375Z,3.83
2018-05-10T18:37:35.902Z,6.40
2018-05-10T18:39:39.475Z,4.50
2018-05-10T18:41:43.748Z,7.40
2018-05-10T18:43:47.273Z,7.43
2018-05-10T18:45:50.798Z,5.63
2018-05-10T18:47:55.162Z,5.60
2018-05-10T18:49:58.660Z,6.07
2018-05-10T18:52:02.175Z,4.50
2018-05-10T18:54:05.711Z,5.67
2018-05-10T18:56:09.176Z,5.37
2018-05-10T18:58:13.913Z,5.87
2018-05-10T19:00:17.486Z,6.50
2018-05-10T19:02:20.975Z,5.77
2018-05-10T19:04:24.527Z,7.77
2018-05-10T19:06:27.997Z,5.60
2018-05-10T19:08:31.462Z,6.83
2018-05-10T19:10:34.962Z,5.20
2018-05-10T19:12:38.457Z,7.37
2018-05-10T19:14:42.286Z,7.33
2018-05-10T19:16:45.755Z,6.07
2018-05-10T19:18:50.021Z,8.73
2018-05-10T19:20:53.598Z,6.43
2018-05-10T19:22:57.046Z,5.37
2018-05-10T19:25:00.549Z,6.80
2018-05-10T19:27:04.083Z,7.00
2018-05-10T19:29:07.566Z,8.80
2018-05-10T19:31:11.123Z,8.57
2018-05-10T19:33:14.614Z,9.40
2018-05-10T19:35:19.314Z,9.53
2018-05-10T19:37:23.783Z,9.13
2018-05-10T19:39:27.741Z,8.13
2018-05-10T19:41:32.050Z,7.57
2018-05-10T19:43:36.842Z,7.07
2018-05-10T19:45:40.780Z,6.33
2018-05-10T19:47:44.430Z,6.13
2018-05-10T19:49:47.940Z,5.57
2018-05-10T19:51:52.218Z,8.07
2018-05-10T19:53:55.747Z,9.10
2018-05-10T19:56:00.036Z,8.13
2018-05-10T19:58:03.538Z,7.47
2018-05-10T20:00:07.827Z,6.63
2018-05-10T20:02:11.265Z,9.27
2018-05-10T20:04:14.715Z,12.20
2018-05-10T20:06:18.225Z,11.83
2018-05-10T20:08:21.746Z,12.07
2018-05-10T20:10:25.269Z,14.90
2018-05-10T20:12:28.821Z,17.70
2018-05-10T20:14:32.375Z,14.80
2018-05-10T20:16:36.274Z,15.13
2018-05-10T20:18:39.800Z,20.63
2018-05-10T20:20:43.306Z,12.80
2018-05-10T20:22:46.825Z,14.43
2018-05-10T20:24:50.361Z,17.37
2018-05-10T20:26:54.009Z,17.23
2018-05-10T20:28:57.558Z,14.90
2018-05-10T20:31:01.017Z,16.60
2018-05-10T20:33:05.663Z,13.90
2018-05-10T20:35:09.214Z,17.37
2018-05-10T20:37:12.690Z,18.97
2018-05-10T20:39:16.207Z,18.93
2018-05-10T20:41:20.194Z,8.87
2018-05-10T20:43:24.474Z,15.67
2018-05-10T20:45:28.041Z,18.40
2018-05-10T20:47:31.592Z,14.80
2018-05-10T20:49:35.529Z,13.90
2018-05-10T20:51:41.333Z,18.90
2018-05-10T20:53:45.457Z,10.73
2018-05-10T20:55:51.121Z,12.70
2018-05-10T20:57:55.500Z,13.80
2018-05-10T21:00:01.509Z,16.77
2018-05-10T21:02:04.982Z,14.87
2018-05-10T21:04:09.483Z,10.23
2018-05-10T21:06:12.954Z,8.73
2018-05-10T21:08:16.448Z,11.93
2018-05-10T21:10:20.024Z,8.33
2018-05-10T21:12:35.479Z,12.30
2018-05-10T21:14:38.958Z,14.13
2018-05-10T21:16:42.478Z,12.07
2018-05-10T21:18:46.708Z,13.83
2018-05-10T21:20:50.723Z,12.27
2018-05-10T21:22:54.243Z,11.63
2018-05-10T21:24:57.719Z,14.60
2018-05-10T21:27:01.268Z,15.10
2018-05-10T21:29:05.538Z,12.93
2018-05-10T21:31:09.011Z,14.43
2018-05-10T21:33:12.813Z,17.27
2018-05-10T21:35:16.316Z,19.90
2018-05-10T21:37:19.831Z,16.50
2018-05-10T21:39:23.383Z,16.30
2018-05-10T21:41:26.879Z,18.93
2018-05-10T21:43:30.417Z,13.53
2018-05-10T21:45:33.900Z,14.17
2018-05-10T21:47:37.573Z,15.10
2018-05-10T21:49:53.005Z,15.87
2018-05-10T21:51:56.515Z,14.43
2018-05-10T21:54:00.116Z,14.47
2018-05-10T21:56:03.702Z,14.17
2018-05-10T21:58:07.226Z,11.57
2018-05-10T22:00:10.871Z,14.70
2018-05-10T22:02:14.436Z,18.27
2018-05-10T22:04:17.947Z,16.67
2018-05-10T22:06:21.534Z,14.83
2018-05-10T22:08:25.064Z,15.23
2018-05-10T22:10:28.554Z,13.63
2018-05-10T22:12:32.102Z,13.90
2018-05-10T22:14:36.415Z,17.30
2018-05-10T22:16:40.387Z,13.53
2018-05-10T22:18:43.893Z,16.40
2018-05-10T22:20:47.422Z,16.37
2018-05-10T22:22:50.961Z,17.63
2018-05-10T22:24:55.241Z,15.73
2018-05-10T22:26:58.927Z,16.90
2018-05-10T22:29:02.453Z,18.63
2018-05-10T22:31:05.945Z,15.27
2018-05-10T22:33:10.284Z,20.67
2018-05-10T22:35:13.923Z,13.00
2018-05-10T22:37:17.420Z,11.57
2018-05-10T22:39:20.935Z,17.77
2018-05-10T22:41:24.430Z,20.43
2018-05-10T22:43:28.005Z,17.27
2018-05-10T22:45:31.492Z,14.77
2018-05-10T22:47:34.991Z,13.70
2018-05-10T22:49:38.660Z,17.93
2018-05-10T22:51:42.178Z,15.43
2018-05-10T22:53:45.671Z,14.30
2018-05-10T22:55:49.302Z,12.63
2018-05-10T22:57:52.797Z,15.00
2018-05-10T22:59:56.300Z,14.27
2018-05-10T23:02:00.632Z,18.60
2018-05-10T23:04:04.177Z,14.43
2018-05-10T23:06:07.728Z,12.77
2018-05-10T23:08:12.058Z,14.67
2018-05-10T23:10:15.599Z,12.13
2018-05-10T23:12:19.167Z,13.37
2018-05-10T23:14:22.816Z,14.67
2018-05-10T23:16:27.112Z,15.97
2018-05-10T23:18:30.636Z,12.70
2018-05-10T23:20:34.188Z,11.60
2018-05-10T23:22:37.703Z,13.77
2018-05-10T23:24:41.963Z,14.13
2018-05-10T23:26:45.492Z,11.70
2018-05-10T23:28:49.002Z,12.40
2018-05-10T23:30:52.474Z,12.17
2018-05-10T23:32:56.025Z,10.43
2018-05-10T23:35:00.336Z,16.07
2018-05-10T23:37:03.895Z,11.67
2018-05-10T23:39:08.233Z,9.63
2018-05-10T23:41:12.562Z,11.13
2018-05-10T23:43:16.143Z,7.00
2018-05-10T23:45:20.456Z,6.80
2018-05-10T23:47:24.052Z,8.87
2018-05-10T23:49:28.366Z,7.93
2018-05-10T23:51:32.611Z,11.27
2018-05-10T23:53:36.108Z,9.53
2018-05-10T23:55:39.683Z,8.50
2018-05-10T23:57:43.180Z,12.83
2018-05-10T23:59:46.715Z,10.70
